KLRF/LRF METAR and TAF weather

Enter ICAO airport designator
Station Type Date Time Source
KLRF METAR 2019/06/19 00:56 UTC NOAA

KLRF 190056Z AUTO 30003KT 10SM CLR 29/20 A2981 RMK AO2 SLP094 T02910202


Station Type Date Time Source
KLRF Decoded METAR 2019/06/19 00:56 UTC NOAA

Little Rock Air Force Base, AR, United States (KLRF) 34-55N 092-09W
Jun 18, 2019 - 08:56 PM EDT / 2019.06.19 0056 UTC
Wind: from the WNW (300 degrees) at 3 MPH (3 KT):0
Visibility: 10 mile(s):0
Sky conditions: clear
Temperature: 84.4 F (29.1 C)
Dew Point: 68.4 F (20.2 C)
Relative Humidity: 58%
Pressure (altimeter): 29.81 in. Hg (1009 hPa)
ob: KLRF 190056Z AUTO 30003KT 10SM CLR 29/20 A2981 RMK AO2 SLP094 T02910202
cycle: 1

Station Type Date Time Source
KLRF TAF 2019/06/18 23:21 UTC NOAA

TAF KLRF 182300Z 1823/2005 30006KT 9999 FEW045 SCT080 QNH2980INS
BECMG 1913/1914 23010G15KT 8000 -SHRA FEW020 BKN040 BKN100 QNH2983INS
BECMG 1916/1917 24012G18KT 9999 NSW FEW030 SCT050 SCT120 BKN250 QNH2974INS
BECMG 1920/1921 24015G25KT 9000 -SHRA FEW010 SCT025 OVC060 QNH2968INS
TEMPO 1921/1923 24020G30KT 8000 -TSRA BKN020CB BKN100 BKN250
BECMG 1923/2000 25010G15KT 9000 -SHRA FEW020 BKN090 OVC250 QNH2963INS
TEMPO 2000/2003 25030G40KT 4800 -TSRA FEW010 OVC020CB
BECMG 2002/2003 28009KT 9999 NSW FEW020 SCT060 SCT250 QNH2960INS
TEMPO 2003/2005 28012G20KT 9000 -TSRA OVC015CB TX33/1921Z TN21/1912Z

Example: see airport list